South Fork, Colorado
Current Conditions -  °F | °C
As of 4:10 AM on Wednesday 26 Nov 2014 (Local Time) from KRCV Reporting Station
Overcast Overcast  
Wind Chill:   Ceiling: 6000
Heat Index: 16°   Visibility: 10mi
Dew Point:   Wind: 7mph
Humidity: 73%   Direction: 260°W
Pressure: 30.27"   Gusts: NA
Location:  37.67°N, 106.64°W
Report Text: KRCV 261110Z AUTO 26006KT 10SM OVC060 M09/M13 A3027 RMK AO2 T10891130
Loading
Personal Weather Stations






























Interactive Weather Map New forecast layout! Learn more

10-Day Weather Forecast

Advertisements
Track Severe Weather on mobile